createdAt,value
2023-02-14T00:01:48.832Z,2.60
2023-02-14T00:04:18.365Z,2.40
2023-02-14T00:06:47.505Z,3.10
2023-02-14T00:09:17.427Z,2.90
2023-02-14T00:11:49.042Z,3.10
2023-02-14T00:14:36.338Z,2.70
2023-02-14T00:17:04.786Z,2.90
2023-02-14T00:19:34.684Z,3.20
2023-02-14T00:22:03.624Z,3.00
2023-02-14T00:24:32.060Z,2.70
2023-02-14T00:27:00.216Z,2.80
2023-02-14T00:29:31.123Z,2.90
2023-02-14T00:31:59.810Z,2.90
2023-02-14T00:35:11.662Z,2.70
2023-02-14T00:37:46.137Z,2.60
2023-02-14T00:40:14.757Z,2.80
2023-02-14T00:42:42.865Z,2.80
2023-02-14T00:45:11.213Z,3.10
2023-02-14T00:47:39.792Z,2.80
2023-02-14T00:50:08.813Z,2.90
2023-02-14T00:52:38.256Z,3.00
2023-02-14T00:55:06.494Z,2.90
2023-02-14T00:57:34.676Z,3.20
2023-02-14T01:00:02.897Z,2.70
2023-02-14T01:02:31.140Z,2.80
2023-02-14T01:04:59.269Z,3.20
2023-02-14T01:07:27.407Z,3.00
2023-02-14T01:09:57.469Z,2.80
2023-02-14T01:15:15.603Z,2.90
2023-02-14T01:17:45.888Z,3.00
2023-02-14T01:20:15.101Z,2.90
2023-02-14T01:22:45.079Z,3.00
2023-02-14T01:25:14.494Z,3.20
2023-02-14T01:27:46.431Z,3.30
2023-02-14T01:30:15.352Z,3.30
2023-02-14T01:32:43.741Z,3.10
2023-02-14T01:35:18.015Z,2.80
2023-02-14T01:37:49.281Z,3.40
2023-02-14T01:40:17.464Z,3.20
2023-02-14T01:42:47.879Z,3.20
2023-02-14T01:45:21.105Z,3.00
2023-02-14T01:47:52.420Z,2.50
2023-02-14T01:50:29.842Z,3.00
2023-02-14T01:53:02.560Z,2.60
2023-02-14T01:55:33.110Z,3.00
2023-02-14T01:58:14.779Z,3.10
2023-02-14T02:00:58.751Z,3.10
2023-02-14T02:03:34.462Z,3.10
2023-02-14T02:06:33.826Z,2.70
2023-02-14T02:09:18.618Z,3.20
2023-02-14T02:11:46.948Z,3.40
2023-02-14T02:14:19.708Z,2.70
2023-02-14T02:17:03.540Z,2.80
2023-02-14T02:20:02.811Z,3.40
2023-02-14T02:23:03.550Z,3.20
2023-02-14T02:26:02.357Z,2.70
2023-02-14T02:28:36.592Z,2.80
2023-02-14T02:31:23.565Z,3.00
2023-02-14T02:34:02.958Z,3.40
2023-02-14T02:36:47.293Z,3.00
2023-02-14T02:39:15.376Z,2.90
2023-02-14T02:41:46.751Z,3.00
2023-02-14T02:44:21.846Z,2.60
2023-02-14T02:47:15.462Z,3.20
2023-02-14T02:50:09.748Z,2.80
2023-02-14T02:53:02.795Z,3.10
2023-02-14T02:55:59.235Z,2.90
2023-02-14T02:58:38.834Z,2.60
2023-02-14T03:01:10.274Z,2.50
2023-02-14T03:03:57.076Z,2.50
2023-02-14T03:06:25.506Z,2.30
2023-02-14T03:08:53.637Z,2.30
2023-02-14T03:11:22.090Z,2.20
2023-02-14T03:14:18.817Z,2.70
2023-02-14T03:17:05.540Z,2.40
2023-02-14T03:20:15.811Z,2.60
2023-02-14T03:22:43.843Z,2.60
2023-02-14T03:25:24.611Z,2.60
2023-02-14T03:28:23.784Z,2.20
2023-02-14T03:30:58.135Z,2.20
2023-02-14T03:33:39.436Z,2.10
2023-02-14T03:36:14.327Z,1.80
2023-02-14T03:38:49.491Z,2.00
2023-02-14T03:43:52.716Z,2.20
2023-02-14T03:46:32.517Z,2.20
2023-02-14T03:49:03.960Z,2.50
2023-02-14T03:51:34.377Z,2.20
2023-02-14T03:54:03.248Z,1.90
2023-02-14T03:56:48.391Z,2.00
2023-02-14T03:59:20.705Z,2.50
2023-02-14T04:01:52.752Z,2.20
2023-02-14T04:04:22.694Z,2.20
2023-02-14T04:06:50.867Z,1.80
2023-02-14T04:09:19.454Z,1.80
2023-02-14T04:11:50.377Z,2.00
2023-02-14T04:14:18.677Z,2.00
2023-02-14T04:17:05.287Z,1.90
2023-02-14T04:19:34.493Z,1.80
2023-02-14T04:22:02.892Z,1.80
2023-02-14T04:24:31.356Z,2.10
2023-02-14T04:27:11.825Z,1.80
2023-02-14T04:29:41.682Z,1.70
2023-02-14T04:32:11.960Z,1.80
2023-02-14T04:34:40.956Z,1.60
2023-02-14T04:37:09.359Z,1.50
2023-02-14T04:39:37.737Z,1.50
2023-02-14T04:42:06.249Z,1.70
2023-02-14T04:44:34.383Z,1.40
2023-02-14T04:47:02.570Z,1.60
2023-02-14T04:49:31.454Z,1.50
2023-02-14T04:51:59.582Z,1.30
2023-02-14T04:54:27.987Z,1.70
2023-02-14T04:56:56.262Z,1.40
2023-02-14T04:59:25.225Z,1.50
2023-02-14T05:01:53.618Z,1.60
2023-02-14T05:04:22.789Z,1.70
2023-02-14T05:06:51.013Z,1.60
2023-02-14T05:09:20.063Z,1.50
2023-02-14T05:11:48.303Z,1.60
2023-02-14T05:14:16.517Z,1.40
2023-02-14T05:16:44.963Z,1.20
2023-02-14T05:19:13.388Z,1.20
2023-02-14T05:21:41.452Z,1.50
2023-02-14T05:24:09.604Z,1.40
2023-02-14T05:26:37.687Z,1.50
2023-02-14T05:29:06.095Z,1.40
2023-02-14T05:31:34.675Z,1.50
2023-02-14T05:34:03.204Z,1.50
2023-02-14T05:36:31.602Z,1.60
2023-02-14T05:38:59.878Z,1.40
2023-02-14T05:41:28.072Z,1.20
2023-02-14T05:43:58.444Z,1.80
2023-02-14T05:46:27.944Z,1.50
2023-02-14T05:48:56.409Z,1.30
2023-02-14T05:51:24.501Z,1.60
2023-02-14T05:53:52.753Z,1.40
2023-02-14T05:56:20.855Z,2.40
2023-02-14T05:58:49.028Z,2.40
2023-02-14T06:01:17.123Z,2.20
2023-02-14T06:03:46.123Z,1.80
2023-02-14T06:06:14.548Z,1.90
2023-02-14T06:08:42.623Z,2.30
2023-02-14T06:11:10.985Z,1.50
2023-02-14T06:13:45.863Z,1.90
2023-02-14T06:16:26.978Z,1.20
2023-02-14T06:18:55.035Z,1.30
2023-02-14T06:21:23.200Z,1.00
2023-02-14T06:23:51.366Z,1.10
2023-02-14T06:26:19.457Z,1.30
2023-02-14T06:28:47.592Z,1.30
2023-02-14T06:31:18.548Z,1.50
2023-02-14T06:33:46.913Z,1.50
2023-02-14T06:36:23.560Z,1.80
2023-02-14T06:38:51.948Z,1.30
2023-02-14T06:41:22.434Z,1.30
2023-02-14T06:43:53.365Z,1.30
2023-02-14T06:46:23.794Z,1.40
2023-02-14T06:48:54.314Z,1.30
2023-02-14T06:51:25.193Z,1.50
2023-02-14T06:53:53.885Z,1.40
2023-02-14T06:56:22.202Z,1.60
2023-02-14T06:58:50.367Z,1.90
2023-02-14T07:01:24.080Z,1.50
2023-02-14T07:03:57.508Z,1.70
2023-02-14T07:06:30.884Z,1.50
2023-02-14T07:08:59.027Z,1.30
2023-02-14T07:11:35.053Z,1.40
2023-02-14T07:14:06.461Z,1.50
2023-02-14T07:16:35.132Z,1.40
2023-02-14T07:19:03.991Z,1.60
2023-02-14T07:21:32.614Z,1.10
2023-02-14T07:24:00.987Z,1.40
2023-02-14T07:26:35.868Z,1.30
2023-02-14T07:29:10.324Z,1.20
2023-02-14T07:31:41.763Z,1.20
2023-02-14T07:34:19.518Z,1.20
2023-02-14T07:39:34.107Z,2.10
2023-02-14T07:42:12.293Z,1.70
2023-02-14T07:44:50.225Z,1.30
2023-02-14T07:47:18.320Z,1.40
2023-02-14T07:49:53.794Z,1.50
2023-02-14T07:52:44.742Z,1.30
2023-02-14T07:55:27.057Z,1.10
2023-02-14T07:57:55.343Z,1.50
2023-02-14T08:00:48.625Z,1.30
2023-02-14T08:03:18.075Z,0.90
2023-02-14T08:05:57.107Z,1.20
2023-02-14T08:08:26.717Z,1.30
2023-02-14T08:10:55.326Z,1.40
2023-02-14T08:13:23.534Z,1.20
2023-02-14T08:16:09.446Z,1.10
2023-02-14T08:18:39.608Z,1.70
2023-02-14T08:21:09.542Z,1.60
2023-02-14T08:23:37.936Z,1.20
2023-02-14T08:26:06.240Z,1.10
2023-02-14T08:28:36.651Z,1.10
2023-02-14T08:31:05.270Z,1.00
2023-02-14T08:33:33.631Z,1.40
2023-02-14T08:36:02.642Z,1.30
2023-02-14T08:38:31.089Z,1.30
2023-02-14T08:41:03.754Z,1.50
2023-02-14T08:43:34.364Z,1.40
2023-02-14T08:46:03.249Z,1.30
2023-02-14T08:48:31.612Z,1.00
2023-02-14T08:51:00.110Z,1.30
2023-02-14T08:53:28.447Z,1.20
2023-02-14T08:55:57.780Z,1.30
2023-02-14T08:58:26.439Z,1.40
2023-02-14T09:00:55.915Z,1.50
2023-02-14T09:03:24.866Z,1.30
2023-02-14T09:05:53.468Z,1.30
2023-02-14T09:08:22.384Z,1.70
2023-02-14T09:10:52.324Z,1.30
2023-02-14T09:13:20.613Z,1.70
2023-02-14T09:15:48.698Z,1.20
2023-02-14T09:18:19.042Z,1.10
2023-02-14T09:20:47.302Z,1.40
2023-02-14T09:23:15.426Z,1.50
2023-02-14T09:25:48.795Z,1.40
2023-02-14T09:28:17.463Z,1.30
2023-02-14T09:30:45.500Z,1.30
2023-02-14T09:33:13.676Z,1.10
2023-02-14T09:36:00.651Z,1.40
2023-02-14T09:38:29.344Z,1.10
2023-02-14T09:40:58.765Z,1.10
2023-02-14T09:43:31.243Z,1.00
2023-02-14T09:45:59.635Z,1.00
2023-02-14T09:48:39.055Z,1.20
2023-02-14T09:51:25.518Z,1.20
2023-02-14T09:54:03.991Z,1.30
2023-02-14T09:57:04.373Z,1.10
2023-02-14T09:59:37.911Z,1.00
2023-02-14T10:02:19.322Z,0.90
2023-02-14T10:05:16.801Z,0.80
2023-02-14T10:08:33.025Z,1.10
2023-02-14T10:11:11.112Z,1.30
2023-02-14T10:13:43.073Z,0.90
2023-02-14T10:16:20.765Z,0.80
2023-02-14T10:19:28.795Z,0.80
2023-02-14T10:22:24.646Z,0.80
2023-02-14T10:24:56.020Z,0.90
2023-02-14T10:27:32.360Z,1.00
2023-02-14T10:30:02.940Z,1.00
2023-02-14T10:32:48.510Z,1.20
2023-02-14T10:35:40.971Z,0.80
2023-02-14T10:38:36.925Z,0.80
2023-02-14T10:41:31.448Z,1.10
2023-02-14T10:44:05.774Z,1.20
2023-02-14T10:46:42.836Z,0.90
2023-02-14T10:49:45.347Z,0.90
2023-02-14T10:52:29.644Z,1.10
2023-02-14T10:55:08.296Z,1.30
2023-02-14T11:06:38.367Z,1.10
2023-02-14T11:09:11.119Z,1.00
2023-02-14T11:11:41.183Z,1.30
2023-02-14T11:14:25.189Z,1.30
2023-02-14T11:16:54.293Z,1.40
2023-02-14T11:19:25.922Z,1.10
2023-02-14T11:21:55.773Z,0.70
2023-02-14T11:24:31.742Z,1.00
2023-02-14T11:27:00.955Z,1.30
2023-02-14T11:29:30.508Z,0.90
2023-02-14T11:32:08.313Z,1.10
2023-02-14T11:34:40.162Z,1.50
2023-02-14T11:37:23.838Z,0.90
2023-02-14T11:39:54.578Z,1.20
2023-02-14T11:44:55.020Z,1.00
2023-02-14T11:47:26.756Z,1.10
2023-02-14T11:50:01.418Z,0.90
2023-02-14T11:52:29.269Z,0.90
2023-02-14T11:54:56.721Z,0.70
2023-02-14T11:57:33.883Z,0.80
2023-02-14T12:00:04.419Z,1.20
2023-02-14T12:02:46.784Z,0.90
2023-02-14T12:05:20.005Z,0.90
2023-02-14T12:07:48.204Z,1.90
2023-02-14T12:10:16.537Z,1.30
2023-02-14T12:13:09.862Z,1.60
2023-02-14T12:15:43.224Z,1.10
2023-02-14T12:18:23.520Z,0.90
2023-02-14T12:21:00.894Z,1.00
2023-02-14T12:23:41.602Z,1.20
2023-02-14T12:26:26.262Z,1.20
2023-02-14T12:29:27.949Z,1.20
2023-02-14T12:31:59.471Z,1.30
2023-02-14T12:34:26.518Z,1.10
2023-02-14T12:37:03.544Z,1.20
2023-02-14T12:40:01.329Z,0.90
2023-02-14T12:42:42.103Z,1.40
2023-02-14T12:45:48.651Z,1.30
2023-02-14T12:48:42.228Z,1.40
2023-02-14T12:51:38.744Z,1.10
2023-02-14T12:54:08.731Z,1.00
2023-02-14T12:57:08.593Z,2.30
2023-02-14T12:59:55.942Z,1.40
2023-02-14T13:02:45.875Z,1.70
2023-02-14T13:05:16.261Z,1.40
2023-02-14T13:08:34.664Z,1.10
2023-02-14T13:11:17.712Z,1.40
2023-02-14T13:14:03.073Z,0.90
2023-02-14T13:17:01.067Z,1.20
2023-02-14T13:19:41.667Z,0.90
2023-02-14T13:22:10.914Z,0.90
2023-02-14T13:24:47.568Z,1.50
2023-02-14T13:27:25.521Z,1.20
2023-02-14T13:29:55.653Z,1.10
2023-02-14T13:32:25.198Z,0.90
2023-02-14T13:34:52.406Z,1.00
2023-02-14T13:37:21.304Z,1.00
2023-02-14T13:39:58.347Z,2.10
2023-02-14T13:42:48.321Z,1.20
2023-02-14T13:45:31.974Z,1.50
2023-02-14T13:48:07.243Z,2.00
2023-02-14T13:50:54.374Z,1.70
2023-02-14T13:53:48.703Z,2.00
2023-02-14T13:56:16.184Z,1.60
2023-02-14T13:58:59.191Z,1.20
2023-02-14T14:01:30.234Z,1.60
2023-02-14T14:04:05.509Z,1.40
2023-02-14T14:07:03.740Z,1.80
2023-02-14T14:09:42.123Z,1.90
2023-02-14T14:12:27.953Z,2.30
2023-02-14T14:15:06.102Z,2.00
2023-02-14T14:17:39.891Z,1.70
2023-02-14T14:20:30.275Z,2.10
2023-02-14T14:22:58.066Z,1.80
2023-02-14T14:25:39.265Z,2.00
2023-02-14T14:28:20.599Z,2.40
2023-02-14T14:30:47.975Z,2.60
2023-02-14T14:33:38.174Z,2.50
2023-02-14T14:36:08.301Z,3.10
2023-02-14T14:38:46.596Z,2.00
2023-02-14T14:41:13.501Z,2.40
2023-02-14T14:43:41.425Z,1.70
2023-02-14T14:46:13.057Z,1.80
2023-02-14T14:48:49.441Z,2.10
2023-02-14T14:51:29.675Z,2.00
2023-02-14T14:54:05.178Z,2.90
2023-02-14T14:56:36.915Z,2.10
2023-02-14T14:59:26.173Z,1.90
2023-02-14T15:01:53.840Z,4.60
2023-02-14T15:04:28.127Z,3.50
2023-02-14T15:06:57.884Z,3.10
2023-02-14T15:09:31.611Z,4.60
2023-02-14T15:12:18.000Z,3.40
2023-02-14T15:14:49.697Z,1.90
2023-02-14T15:17:26.369Z,2.50
2023-02-14T15:20:10.846Z,2.50
2023-02-14T15:22:45.163Z,2.90
2023-02-14T15:25:23.426Z,2.30
2023-02-14T15:27:50.745Z,2.80
2023-02-14T15:30:38.359Z,1.90
2023-02-14T15:33:06.360Z,1.90
2023-02-14T15:35:37.422Z,2.00
2023-02-14T15:38:05.115Z,1.90
2023-02-14T15:40:34.062Z,1.80
2023-02-14T15:43:15.534Z,2.50
2023-02-14T15:45:42.631Z,1.70
2023-02-14T15:48:16.343Z,2.00
2023-02-14T15:50:47.344Z,2.10
2023-02-14T15:53:18.564Z,2.60
2023-02-14T15:55:49.152Z,2.70
2023-02-14T15:58:21.996Z,2.30
2023-02-14T16:00:50.253Z,2.30
2023-02-14T16:03:22.888Z,2.40
2023-02-14T16:05:50.257Z,2.50
2023-02-14T16:08:35.121Z,2.80
2023-02-14T16:11:12.880Z,2.50
2023-02-14T16:13:43.648Z,2.90
2023-02-14T16:16:12.765Z,1.90
2023-02-14T16:18:44.964Z,2.00
2023-02-14T16:21:33.830Z,2.00
2023-02-14T16:24:06.721Z,1.50
2023-02-14T16:26:34.414Z,2.00
2023-02-14T16:29:03.205Z,2.80
2023-02-14T16:31:30.806Z,2.20
2023-02-14T16:33:58.927Z,1.40
2023-02-14T16:38:53.183Z,1.30
2023-02-14T16:41:21.693Z,1.20
2023-02-14T16:43:49.263Z,1.20
2023-02-14T16:46:21.228Z,1.30
2023-02-14T16:48:51.843Z,1.70
2023-02-14T16:51:20.164Z,1.30
2023-02-14T16:53:48.322Z,2.30
2023-02-14T16:56:21.519Z,2.70
2023-02-14T16:58:48.507Z,2.00
2023-02-14T17:01:16.469Z,2.30
2023-02-14T17:03:44.354Z,2.00
2023-02-14T17:06:13.078Z,2.00
2023-02-14T17:08:42.884Z,3.00
2023-02-14T17:11:09.964Z,2.00
2023-02-14T17:13:41.237Z,3.30
2023-02-14T17:16:11.097Z,1.60
2023-02-14T17:18:40.008Z,1.90
2023-02-14T17:21:07.384Z,1.60
2023-02-14T17:23:35.103Z,1.70
2023-02-14T17:26:01.974Z,1.60
2023-02-14T17:28:29.001Z,1.40
2023-02-14T17:30:56.175Z,1.50
2023-02-14T17:33:23.694Z,1.70
2023-02-14T17:35:50.441Z,1.60
2023-02-14T17:38:19.133Z,1.50
2023-02-14T17:40:45.876Z,1.30
2023-02-14T17:43:13.377Z,1.00
2023-02-14T17:48:06.847Z,1.20
2023-02-14T17:50:33.973Z,1.30
2023-02-14T17:53:00.906Z,1.30
2023-02-14T17:57:54.575Z,1.00
2023-02-14T18:00:22.400Z,2.40
2023-02-14T18:02:50.007Z,3.60
2023-02-14T18:05:17.530Z,1.60
2023-02-14T18:07:45.242Z,7.60
2023-02-14T18:10:12.604Z,9.40
2023-02-14T18:12:40.455Z,1.30
2023-02-14T18:15:07.802Z,1.40
2023-02-14T18:17:35.095Z,1.10
2023-02-14T18:20:02.807Z,0.90
2023-02-14T18:22:30.550Z,1.40
2023-02-14T18:24:58.879Z,0.90
2023-02-14T18:27:25.958Z,0.80
2023-02-14T18:29:56.251Z,0.90
2023-02-14T18:32:23.296Z,1.20
2023-02-14T18:34:51.674Z,0.90
2023-02-14T18:37:19.172Z,0.60
2023-02-14T18:39:50.039Z,0.90
2023-02-14T18:42:17.201Z,0.70
2023-02-14T18:44:44.648Z,0.70
2023-02-14T18:47:11.874Z,1.00
2023-02-14T18:49:38.800Z,1.00
2023-02-14T18:54:34.063Z,0.80
2023-02-14T18:57:01.168Z,1.00
2023-02-14T18:59:28.898Z,8.50
2023-02-14T19:01:56.651Z,3.20
2023-02-14T19:04:23.956Z,1.80
2023-02-14T19:06:50.804Z,1.20
2023-02-14T19:11:47.294Z,1.60
2023-02-14T19:16:43.497Z,1.80
2023-02-14T19:19:12.308Z,3.50
2023-02-14T19:21:39.148Z,3.20
2023-02-14T19:24:16.046Z,2.70
2023-02-14T19:26:43.626Z,1.90
2023-02-14T19:29:15.079Z,2.10
2023-02-14T19:31:44.662Z,2.30
2023-02-14T19:34:22.897Z,2.50
2023-02-14T19:36:51.705Z,1.60
2023-02-14T19:39:19.744Z,1.80
2023-02-14T19:41:46.939Z,2.10
2023-02-14T19:44:14.661Z,2.30
2023-02-14T19:46:42.064Z,1.80
2023-02-14T19:49:12.364Z,1.90
2023-02-14T19:51:39.329Z,1.70
2023-02-14T19:56:36.194Z,1.70
2023-02-14T19:59:07.115Z,1.60
2023-02-14T20:01:45.739Z,1.60
2023-02-14T20:04:20.403Z,1.80
2023-02-14T20:06:48.552Z,2.50
2023-02-14T20:09:15.560Z,3.00
2023-02-14T20:11:50.252Z,3.50
2023-02-14T20:14:22.358Z,2.10
2023-02-14T20:16:49.849Z,2.30
2023-02-14T20:19:18.345Z,4.50
2023-02-14T20:21:46.820Z,3.40
2023-02-14T20:24:19.488Z,2.90
2023-02-14T20:26:47.456Z,2.00
2023-02-14T20:29:14.621Z,3.40
2023-02-14T20:31:44.244Z,2.10
2023-02-14T20:34:11.193Z,2.50
2023-02-14T20:36:38.155Z,2.10
2023-02-14T20:39:05.898Z,2.50
2023-02-14T20:41:35.746Z,4.30
2023-02-14T20:44:06.981Z,3.90
2023-02-14T20:46:34.227Z,7.10
2023-02-14T20:49:04.705Z,4.60
2023-02-14T20:51:31.894Z,1.80
2023-02-14T20:53:58.871Z,1.40
2023-02-14T20:56:26.073Z,1.30
2023-02-14T20:58:56.156Z,1.60
2023-02-14T21:01:23.893Z,2.00
2023-02-14T21:03:52.070Z,2.60
2023-02-14T21:06:22.192Z,2.60
2023-02-14T21:08:49.345Z,1.50
2023-02-14T21:11:17.852Z,1.90
2023-02-14T21:13:44.606Z,1.60
2023-02-14T21:16:17.344Z,1.10
2023-02-14T21:18:47.930Z,1.50
2023-02-14T21:21:19.644Z,1.50
2023-02-14T21:23:49.992Z,1.30
2023-02-14T21:26:16.897Z,0.90
2023-02-14T21:28:45.104Z,1.10
2023-02-14T21:31:13.245Z,1.20
2023-02-14T21:33:40.704Z,1.30
2023-02-14T21:36:14.796Z,1.80
2023-02-14T21:38:42.454Z,1.40
2023-02-14T21:41:10.881Z,1.10
2023-02-14T21:43:39.009Z,1.30
2023-02-14T21:46:07.103Z,1.40
2023-02-14T21:48:52.820Z,2.00
2023-02-14T21:51:20.364Z,1.90
2023-02-14T21:53:47.097Z,1.70
2023-02-14T21:56:17.877Z,1.60
2023-02-14T21:58:45.454Z,1.50
2023-02-14T22:01:16.592Z,1.30
2023-02-14T22:03:43.552Z,2.20
2023-02-14T22:06:12.437Z,1.40
2023-02-14T22:08:40.785Z,1.50
2023-02-14T22:11:09.706Z,1.30
2023-02-14T22:13:37.508Z,1.40
2023-02-14T22:16:07.138Z,1.60
2023-02-14T22:18:34.664Z,1.60
2023-02-14T22:21:09.554Z,2.00
2023-02-14T22:23:37.399Z,1.70
2023-02-14T22:26:11.091Z,1.60
2023-02-14T22:28:39.977Z,1.20
2023-02-14T22:31:07.118Z,1.70
2023-02-14T22:33:37.715Z,1.40
2023-02-14T22:36:08.875Z,1.10
2023-02-14T22:38:35.951Z,1.70
2023-02-14T22:41:14.154Z,2.50
2023-02-14T22:43:42.001Z,3.00
2023-02-14T22:46:19.339Z,2.60
2023-02-14T22:51:20.123Z,2.20
2023-02-14T22:53:47.130Z,1.80
2023-02-14T22:56:19.367Z,2.00
2023-02-14T22:58:46.242Z,2.10
2023-02-14T23:01:15.051Z,1.70
2023-02-14T23:03:42.279Z,1.90
2023-02-14T23:06:09.556Z,1.60
2023-02-14T23:08:39.472Z,1.60
2023-02-14T23:11:10.964Z,1.50
2023-02-14T23:13:57.696Z,1.10
2023-02-14T23:16:43.329Z,1.60
2023-02-14T23:19:33.253Z,1.20
2023-02-14T23:22:08.504Z,1.70
2023-02-14T23:24:35.188Z,1.50
2023-02-14T23:29:28.979Z,1.50
2023-02-14T23:31:56.292Z,1.80
2023-02-14T23:34:25.614Z,2.00
2023-02-14T23:36:52.345Z,1.80
2023-02-14T23:41:49.139Z,1.90
2023-02-14T23:44:20.251Z,2.30
2023-02-14T23:46:48.164Z,2.40
2023-02-14T23:49:15.260Z,2.60
2023-02-14T23:51:42.650Z,1.70
2023-02-14T23:54:09.824Z,2.50
2023-02-14T23:56:39.294Z,1.60
